createdAt,value
2022-11-23T00:01:34.850Z,3.30
2022-11-23T00:04:03.626Z,3.30
2022-11-23T00:06:30.603Z,3.30
2022-11-23T00:08:57.452Z,3.40
2022-11-23T00:11:24.991Z,3.40
2022-11-23T00:13:52.372Z,3.40
2022-11-23T00:16:23.571Z,3.50
2022-11-23T00:18:52.873Z,3.50
2022-11-23T00:21:23.072Z,3.50
2022-11-23T00:23:50.293Z,3.50
2022-11-23T00:26:17.843Z,3.50
2022-11-23T00:28:44.657Z,3.50
2022-11-23T00:31:15.427Z,3.50
2022-11-23T00:33:43.374Z,3.50
2022-11-23T00:36:14.493Z,3.50
2022-11-23T00:38:42.405Z,3.50
2022-11-23T00:41:15.403Z,3.60
2022-11-23T00:43:42.789Z,3.60
2022-11-23T00:46:12.861Z,3.60
2022-11-23T00:48:42.959Z,3.60
2022-11-23T00:51:10.712Z,3.70
2022-11-23T00:53:41.869Z,3.60
2022-11-23T00:56:08.665Z,3.60
2022-11-23T00:58:39.756Z,3.60
2022-11-23T01:01:11.486Z,3.60
2022-11-23T01:03:42.818Z,3.60
2022-11-23T01:06:10.722Z,3.60
2022-11-23T01:08:38.979Z,3.60
2022-11-23T01:11:09.930Z,3.70
2022-11-23T01:13:37.746Z,3.70
2022-11-23T01:16:05.609Z,3.70
2022-11-23T01:18:32.419Z,3.70
2022-11-23T01:21:01.280Z,3.70
2022-11-23T01:23:31.392Z,3.70
2022-11-23T01:26:03.496Z,3.70
2022-11-23T01:28:30.299Z,3.70
2022-11-23T01:31:03.331Z,3.70
2022-11-23T01:33:30.170Z,3.80
2022-11-23T01:35:57.130Z,3.80
2022-11-23T01:38:23.931Z,3.80
2022-11-23T01:40:51.136Z,3.80
2022-11-23T01:43:18.526Z,3.80
2022-11-23T01:45:56.022Z,3.80
2022-11-23T01:48:49.163Z,3.90
2022-11-23T01:51:20.839Z,3.90
2022-11-23T01:53:48.845Z,3.80
2022-11-23T01:56:18.683Z,3.80
2022-11-23T01:58:47.942Z,3.90
2022-11-23T02:01:15.469Z,3.90
2022-11-23T02:03:46.912Z,3.80
2022-11-23T02:06:15.392Z,3.90
2022-11-23T02:08:42.377Z,3.80
2022-11-23T02:11:09.667Z,3.90
2022-11-23T02:13:38.075Z,3.90
2022-11-23T02:16:05.323Z,3.90
2022-11-23T02:18:32.994Z,3.90
2022-11-23T02:21:00.696Z,3.90
2022-11-23T02:23:33.565Z,3.90
2022-11-23T02:26:02.961Z,4.00
2022-11-23T02:28:33.027Z,4.00
2022-11-23T02:31:00.583Z,4.00
2022-11-23T02:33:27.439Z,4.10
2022-11-23T02:35:59.004Z,4.10
2022-11-23T02:38:28.501Z,4.10
2022-11-23T02:40:57.321Z,4.10
2022-11-23T02:43:24.479Z,4.10
2022-11-23T02:46:04.612Z,4.10
2022-11-23T02:48:32.507Z,4.10
2022-11-23T02:51:01.979Z,4.10
2022-11-23T02:53:30.537Z,4.10
2022-11-23T02:55:58.114Z,4.10
2022-11-23T02:58:24.886Z,4.10
2022-11-23T03:00:51.780Z,4.10
2022-11-23T03:03:19.817Z,4.10
2022-11-23T03:05:46.591Z,4.20
2022-11-23T03:08:13.514Z,4.10
2022-11-23T03:10:40.723Z,4.20
2022-11-23T03:13:07.937Z,4.20
2022-11-23T03:15:37.312Z,4.20
2022-11-23T03:18:07.168Z,4.20
2022-11-23T03:20:35.019Z,4.20
2022-11-23T03:23:01.832Z,4.20
2022-11-23T03:25:28.676Z,4.30
2022-11-23T03:27:56.821Z,4.30
2022-11-23T03:30:24.752Z,4.30
2022-11-23T03:33:01.307Z,4.30
2022-11-23T03:35:29.465Z,4.30
2022-11-23T03:38:16.312Z,4.30
2022-11-23T03:40:46.898Z,4.30
2022-11-23T03:43:24.679Z,4.30
2022-11-23T03:45:51.727Z,4.30
2022-11-23T03:48:18.841Z,4.30
2022-11-23T03:50:45.867Z,4.30
2022-11-23T03:53:12.795Z,4.30
2022-11-23T03:55:40.973Z,4.30
2022-11-23T03:58:08.053Z,4.30
2022-11-23T04:00:36.012Z,4.30
2022-11-23T04:03:03.566Z,4.30
2022-11-23T04:05:49.348Z,4.30
2022-11-23T04:08:35.258Z,4.30
2022-11-23T04:11:06.850Z,4.30
2022-11-23T04:13:37.610Z,4.30
2022-11-23T04:16:04.839Z,4.30
2022-11-23T04:18:31.590Z,4.30
2022-11-23T04:20:58.757Z,4.30
2022-11-23T04:23:25.502Z,4.30
2022-11-23T04:25:52.361Z,4.30
2022-11-23T04:28:19.856Z,4.30
2022-11-23T04:30:48.843Z,4.40
2022-11-23T04:33:16.908Z,4.40
2022-11-23T04:35:44.355Z,4.40
2022-11-23T04:38:11.371Z,4.40
2022-11-23T04:40:38.262Z,4.40
2022-11-23T04:43:06.823Z,4.40
2022-11-23T04:45:37.907Z,4.40
2022-11-23T04:48:07.093Z,4.50
2022-11-23T04:50:35.579Z,4.50
2022-11-23T04:53:04.195Z,4.50
2022-11-23T04:55:38.392Z,4.50
2022-11-23T04:58:05.447Z,4.50
2022-11-23T05:00:34.172Z,4.50
2022-11-23T05:03:03.102Z,4.60
2022-11-23T05:05:32.492Z,4.60
2022-11-23T05:08:02.046Z,4.60
2022-11-23T05:10:43.612Z,4.60
2022-11-23T05:13:10.561Z,4.60
2022-11-23T05:15:37.833Z,4.60
2022-11-23T05:18:08.574Z,4.60
2022-11-23T05:20:36.464Z,4.60
2022-11-23T05:23:04.012Z,4.60
2022-11-23T05:25:32.788Z,4.70
2022-11-23T05:28:16.668Z,4.70
2022-11-23T05:30:50.744Z,4.70
2022-11-23T05:33:17.624Z,4.70
2022-11-23T05:35:45.018Z,4.70
2022-11-23T05:38:12.984Z,4.80
2022-11-23T05:40:41.466Z,4.70
2022-11-23T05:43:09.408Z,4.70
2022-11-23T05:45:36.533Z,4.70
2022-11-23T05:48:04.052Z,4.70
2022-11-23T05:50:55.288Z,4.80
2022-11-23T05:53:27.233Z,4.80
2022-11-23T05:56:02.179Z,4.80
2022-11-23T05:58:33.761Z,4.80
2022-11-23T06:01:01.906Z,4.80
2022-11-23T06:03:33.390Z,4.80
2022-11-23T06:06:00.466Z,4.90
2022-11-23T06:08:34.465Z,4.90
2022-11-23T06:11:01.624Z,4.90
2022-11-23T06:13:29.359Z,4.90
2022-11-23T06:15:57.468Z,4.90
2022-11-23T06:18:35.244Z,4.90
2022-11-23T06:21:02.249Z,4.90
2022-11-23T06:23:29.190Z,5.00
2022-11-23T06:26:01.527Z,4.90
2022-11-23T06:28:36.226Z,4.90
2022-11-23T06:31:04.687Z,5.00
2022-11-23T06:33:32.826Z,4.90
2022-11-23T06:36:00.714Z,5.00
2022-11-23T06:38:42.459Z,5.00
2022-11-23T06:41:16.257Z,5.00
2022-11-23T06:43:43.137Z,5.00
2022-11-23T06:46:12.396Z,5.00
2022-11-23T06:48:43.067Z,5.00
2022-11-23T06:51:10.852Z,5.00
2022-11-23T06:53:38.020Z,5.00
2022-11-23T06:56:08.048Z,5.00
2022-11-23T06:58:35.931Z,5.00
2022-11-23T07:01:07.360Z,5.00
2022-11-23T07:03:41.154Z,5.10
2022-11-23T07:06:39.469Z,5.10
2022-11-23T07:09:09.618Z,5.10
2022-11-23T07:12:03.299Z,5.10
2022-11-23T07:14:55.343Z,5.10
2022-11-23T07:18:08.714Z,5.10
2022-11-23T07:20:39.238Z,5.10
2022-11-23T07:23:07.509Z,5.10
2022-11-23T07:25:36.533Z,5.10
2022-11-23T07:28:06.438Z,5.10
2022-11-23T07:30:34.332Z,5.20
2022-11-23T07:33:01.926Z,5.20
2022-11-23T07:35:57.402Z,5.20
2022-11-23T07:38:24.506Z,5.20
2022-11-23T07:40:52.614Z,5.20
2022-11-23T07:43:41.509Z,5.20
2022-11-23T07:46:08.357Z,5.20
2022-11-23T07:48:36.662Z,5.30
2022-11-23T07:51:03.730Z,5.30
2022-11-23T07:53:30.551Z,5.30
2022-11-23T07:56:00.724Z,5.30
2022-11-23T07:58:27.648Z,5.30
2022-11-23T08:00:54.729Z,5.40
2022-11-23T08:03:30.077Z,5.40
2022-11-23T08:05:57.411Z,5.40
2022-11-23T08:08:24.292Z,5.40
2022-11-23T08:10:53.836Z,5.50
2022-11-23T08:13:21.600Z,5.50
2022-11-23T08:15:58.996Z,5.50
2022-11-23T08:18:28.870Z,5.50
2022-11-23T08:20:59.514Z,5.60
2022-11-23T08:23:26.252Z,5.60
2022-11-23T08:25:53.076Z,5.60
2022-11-23T08:28:19.926Z,5.70
2022-11-23T08:30:47.412Z,5.70
2022-11-23T08:33:14.326Z,5.70
2022-11-23T08:35:42.026Z,5.70
2022-11-23T08:38:09.506Z,5.70
2022-11-23T08:40:36.876Z,5.80
2022-11-23T08:43:05.018Z,5.70
2022-11-23T08:45:31.777Z,5.80
2022-11-23T08:48:02.067Z,5.80
2022-11-23T08:50:32.267Z,5.80
2022-11-23T08:52:59.716Z,5.90
2022-11-23T08:55:27.502Z,6.00
2022-11-23T08:57:58.068Z,6.00
2022-11-23T09:00:25.069Z,6.00
2022-11-23T09:02:51.950Z,6.00
2022-11-23T09:05:18.744Z,6.00
2022-11-23T09:07:45.622Z,6.00
2022-11-23T09:10:17.736Z,6.10
2022-11-23T09:12:45.493Z,6.10
2022-11-23T09:15:12.313Z,6.10
2022-11-23T09:17:39.078Z,6.20
2022-11-23T09:20:06.236Z,6.20
2022-11-23T09:22:33.084Z,6.30
2022-11-23T09:24:59.974Z,6.30
2022-11-23T09:27:26.786Z,6.30
2022-11-23T09:29:53.596Z,6.40
2022-11-23T09:32:20.586Z,6.40
2022-11-23T09:34:48.473Z,6.40
2022-11-23T09:37:15.574Z,6.40
2022-11-23T09:39:42.360Z,6.40
2022-11-23T09:42:27.907Z,6.50
2022-11-23T09:44:57.777Z,6.50
2022-11-23T09:47:41.993Z,6.50
2022-11-23T09:50:11.838Z,6.60
2022-11-23T09:52:40.288Z,6.60
2022-11-23T09:55:13.072Z,6.70
2022-11-23T09:57:42.856Z,6.70
2022-11-23T10:00:18.776Z,6.80
2022-11-23T10:02:46.112Z,6.80
2022-11-23T10:05:18.234Z,6.80
2022-11-23T10:08:03.955Z,6.80
2022-11-23T10:10:46.085Z,6.80
2022-11-23T10:13:24.486Z,6.80
2022-11-23T10:15:54.390Z,6.90
2022-11-23T10:18:33.440Z,7.00
2022-11-23T10:21:09.291Z,6.90
2022-11-23T10:23:51.605Z,7.00
2022-11-23T10:26:20.584Z,7.10
2022-11-23T10:28:47.697Z,7.10
2022-11-23T10:31:22.440Z,7.10
2022-11-23T10:33:58.307Z,7.20
2022-11-23T10:36:26.315Z,7.30
2022-11-23T10:39:00.661Z,7.30
2022-11-23T10:41:29.756Z,7.30
2022-11-23T10:44:02.779Z,7.40
2022-11-23T10:46:31.798Z,7.40
2022-11-23T10:49:17.457Z,7.40
2022-11-23T10:51:50.516Z,7.50
2022-11-23T10:54:37.546Z,7.60
2022-11-23T10:57:23.941Z,7.60
2022-11-23T11:00:28.726Z,7.60
2022-11-23T11:02:57.867Z,7.60
2022-11-23T11:05:46.000Z,7.60
2022-11-23T11:08:17.279Z,7.60
2022-11-23T11:10:46.471Z,7.70
2022-11-23T11:13:22.699Z,7.60
2022-11-23T11:16:12.422Z,7.70
2022-11-23T11:18:39.231Z,7.70
2022-11-23T11:21:18.381Z,7.80
2022-11-23T11:23:51.197Z,7.80
2022-11-23T11:26:22.772Z,7.90
2022-11-23T11:28:54.354Z,7.90
2022-11-23T11:31:39.278Z,7.90
2022-11-23T11:34:19.496Z,8.00
2022-11-23T11:36:59.410Z,8.00
2022-11-23T11:39:41.079Z,8.00
2022-11-23T11:42:14.329Z,8.00
2022-11-23T11:44:43.323Z,8.00
2022-11-23T11:47:22.226Z,8.10
2022-11-23T11:49:50.495Z,8.00
2022-11-23T11:52:22.725Z,8.10
2022-11-23T11:54:50.422Z,8.10
2022-11-23T11:57:21.171Z,8.10
2022-11-23T11:59:50.024Z,8.20
2022-11-23T12:02:23.147Z,8.20
2022-11-23T12:05:08.620Z,8.20
2022-11-23T12:07:37.044Z,8.20
2022-11-23T12:10:11.844Z,8.20
2022-11-23T12:12:39.539Z,8.30
2022-11-23T12:15:20.503Z,8.30
2022-11-23T12:18:13.269Z,8.30
2022-11-23T12:20:43.108Z,8.30
2022-11-23T12:23:17.909Z,8.30
2022-11-23T12:25:49.893Z,8.40
2022-11-23T12:28:32.078Z,8.40
2022-11-23T12:31:17.745Z,8.40
2022-11-23T12:33:59.076Z,8.40
2022-11-23T12:36:43.211Z,8.40
2022-11-23T12:39:32.520Z,8.40
2022-11-23T12:42:22.391Z,8.50
2022-11-23T12:45:08.052Z,8.50
2022-11-23T12:47:50.129Z,8.50
2022-11-23T12:50:29.302Z,8.50
2022-11-23T12:53:16.451Z,8.60
2022-11-23T12:56:09.562Z,8.60
2022-11-23T12:58:37.839Z,8.60
2022-11-23T13:01:32.719Z,8.60
2022-11-23T13:03:59.584Z,8.60
2022-11-23T13:06:29.476Z,8.60
2022-11-23T13:09:19.422Z,8.70
2022-11-23T13:11:58.645Z,8.70
2022-11-23T13:14:25.400Z,8.70
2022-11-23T13:17:03.692Z,8.70
2022-11-23T13:19:30.682Z,8.80
2022-11-23T13:21:58.253Z,8.80
2022-11-23T13:24:32.888Z,8.80
2022-11-23T13:27:25.821Z,8.80
2022-11-23T13:30:00.234Z,8.80
2022-11-23T13:32:51.461Z,8.80
2022-11-23T13:35:21.321Z,8.80
2022-11-23T13:37:54.377Z,8.80
2022-11-23T13:40:28.772Z,8.80
2022-11-23T13:43:04.542Z,8.80
2022-11-23T13:45:36.652Z,8.90
2022-11-23T13:48:09.747Z,8.90
2022-11-23T13:50:36.645Z,8.90
2022-11-23T13:53:04.239Z,8.90
2022-11-23T13:55:38.119Z,9.00
2022-11-23T13:58:23.530Z,9.00
2022-11-23T14:00:53.496Z,9.00
2022-11-23T14:03:39.269Z,8.90
2022-11-23T14:06:10.114Z,9.00
2022-11-23T14:08:39.235Z,9.00
2022-11-23T14:11:17.787Z,8.90
2022-11-23T14:13:51.766Z,8.90
2022-11-23T14:16:27.185Z,8.90
2022-11-23T14:18:54.127Z,8.90
2022-11-23T14:21:27.191Z,8.80
2022-11-23T14:24:15.912Z,8.90
2022-11-23T14:27:17.772Z,8.90
2022-11-23T14:30:02.764Z,8.90
2022-11-23T14:32:39.748Z,8.80
2022-11-23T14:35:06.568Z,8.80
2022-11-23T14:37:39.680Z,8.80
2022-11-23T14:40:12.255Z,8.80
2022-11-23T14:42:44.001Z,8.80
2022-11-23T14:45:15.351Z,8.70
2022-11-23T14:47:42.397Z,8.70
2022-11-23T14:50:25.189Z,8.70
2022-11-23T14:52:54.101Z,8.60
2022-11-23T14:55:22.749Z,8.60
2022-11-23T14:57:50.613Z,8.60
2022-11-23T15:00:25.775Z,8.60
2022-11-23T15:02:53.499Z,8.60
2022-11-23T15:05:20.956Z,8.50
2022-11-23T15:07:56.581Z,8.50
2022-11-23T15:10:26.483Z,8.50
2022-11-23T15:12:53.211Z,8.40
2022-11-23T15:15:24.695Z,8.40
2022-11-23T15:17:56.865Z,8.40
2022-11-23T15:20:25.263Z,8.30
2022-11-23T15:22:52.004Z,8.30
2022-11-23T15:25:19.807Z,8.20
2022-11-23T15:27:49.020Z,8.20
2022-11-23T15:30:16.320Z,8.20
2022-11-23T15:32:43.226Z,8.20
2022-11-23T15:35:12.588Z,8.20
2022-11-23T15:37:47.261Z,8.10
2022-11-23T15:40:18.465Z,8.10
2022-11-23T15:42:47.032Z,8.10
2022-11-23T15:45:32.889Z,8.00
2022-11-23T15:48:00.599Z,8.00
2022-11-23T15:50:31.286Z,8.00
2022-11-23T15:53:01.323Z,7.90
2022-11-23T15:55:29.417Z,7.90
2022-11-23T15:57:56.735Z,7.90
2022-11-23T16:00:25.051Z,7.80
2022-11-23T16:02:52.435Z,7.80
2022-11-23T16:05:23.900Z,7.80
2022-11-23T16:07:50.754Z,7.70
2022-11-23T16:10:19.218Z,7.80
2022-11-23T16:12:55.784Z,7.80
2022-11-23T16:15:32.694Z,7.70
2022-11-23T16:18:00.208Z,7.70
2022-11-23T16:20:27.658Z,7.60
2022-11-23T16:22:55.876Z,7.60
2022-11-23T16:25:27.918Z,7.60
2022-11-23T16:27:57.920Z,7.60
2022-11-23T16:30:26.298Z,7.60
2022-11-23T16:32:53.076Z,7.60
2022-11-23T16:35:20.961Z,7.50
2022-11-23T16:37:48.785Z,7.50
2022-11-23T16:40:15.789Z,7.50
2022-11-23T16:42:42.797Z,7.50
2022-11-23T16:45:10.048Z,7.50
2022-11-23T16:47:50.257Z,7.40
2022-11-23T16:50:17.188Z,7.40
2022-11-23T16:52:44.291Z,7.30
2022-11-23T16:55:11.214Z,7.30
2022-11-23T16:57:38.214Z,7.30
2022-11-23T17:00:06.283Z,7.30
2022-11-23T17:02:36.632Z,7.30
2022-11-23T17:05:03.757Z,7.20
2022-11-23T17:07:30.585Z,7.20
2022-11-23T17:09:59.057Z,7.20
2022-11-23T17:12:27.113Z,7.10
2022-11-23T17:14:53.899Z,7.10
2022-11-23T17:17:22.093Z,7.10
2022-11-23T17:19:49.782Z,7.00
2022-11-23T17:22:20.218Z,7.00
2022-11-23T17:24:47.977Z,7.00
2022-11-23T17:27:22.695Z,7.00
2022-11-23T17:29:57.364Z,7.00
2022-11-23T17:32:24.328Z,7.00
2022-11-23T17:34:51.197Z,7.00
2022-11-23T17:37:20.853Z,7.00
2022-11-23T17:39:49.752Z,7.00
2022-11-23T17:42:16.789Z,6.90
2022-11-23T17:44:43.566Z,6.90
2022-11-23T17:47:30.934Z,6.90
2022-11-23T17:49:58.058Z,6.90
2022-11-23T17:52:25.260Z,6.90
2022-11-23T17:54:52.279Z,6.90
2022-11-23T17:57:22.778Z,6.90
2022-11-23T17:59:49.742Z,6.90
2022-11-23T18:02:16.675Z,6.90
2022-11-23T18:04:43.440Z,6.80
2022-11-23T18:07:12.637Z,6.80
2022-11-23T18:09:39.618Z,6.90
2022-11-23T18:12:06.750Z,6.80
2022-11-23T18:14:33.683Z,6.80
2022-11-23T18:17:00.429Z,6.80
2022-11-23T18:19:27.740Z,6.80
2022-11-23T18:21:54.548Z,6.80
2022-11-23T18:24:21.413Z,6.80
2022-11-23T18:26:48.323Z,6.80
2022-11-23T18:29:17.243Z,6.80
2022-11-23T18:31:44.385Z,6.80
2022-11-23T18:34:11.299Z,6.80
2022-11-23T18:36:38.130Z,6.80
2022-11-23T18:39:05.153Z,6.70
2022-11-23T18:41:32.126Z,6.70
2022-11-23T18:43:59.003Z,6.70
2022-11-23T18:46:28.227Z,6.70
2022-11-23T18:48:57.276Z,6.70
2022-11-23T18:51:24.438Z,6.70
2022-11-23T18:53:53.111Z,6.70
2022-11-23T18:56:19.930Z,6.70
2022-11-23T18:58:47.469Z,6.70
2022-11-23T19:01:14.440Z,6.70
2022-11-23T19:03:42.004Z,6.70
2022-11-23T19:06:11.877Z,6.70
2022-11-23T19:08:40.066Z,6.70
2022-11-23T19:11:07.926Z,6.70
2022-11-23T19:13:38.518Z,6.70
2022-11-23T19:16:13.280Z,6.70
2022-11-23T19:18:40.125Z,6.60
2022-11-23T19:21:13.426Z,6.60
2022-11-23T19:23:40.462Z,6.60
2022-11-23T19:26:07.429Z,6.60
2022-11-23T19:28:34.756Z,6.50
2022-11-23T19:31:11.956Z,6.50
2022-11-23T19:33:38.934Z,6.50
2022-11-23T19:36:10.478Z,6.50
2022-11-23T19:38:37.426Z,6.40
2022-11-23T19:41:04.620Z,6.40
2022-11-23T19:43:32.869Z,6.40
2022-11-23T19:46:01.618Z,6.40
2022-11-23T19:48:35.011Z,6.40
2022-11-23T19:51:13.442Z,6.40
2022-11-23T19:53:41.431Z,6.40
2022-11-23T19:56:11.122Z,6.40
2022-11-23T19:58:38.112Z,6.40
2022-11-23T20:01:10.250Z,6.30
2022-11-23T20:03:37.841Z,6.30
2022-11-23T20:06:06.794Z,6.30
2022-11-23T20:08:33.819Z,6.20
2022-11-23T20:11:05.840Z,6.20
2022-11-23T20:13:58.110Z,6.20
2022-11-23T20:16:26.237Z,6.20
2022-11-23T20:18:58.657Z,6.20
2022-11-23T20:21:26.400Z,6.20
2022-11-23T20:24:04.473Z,6.30
2022-11-23T20:26:31.887Z,6.20
2022-11-23T20:28:58.749Z,6.20
2022-11-23T20:31:26.734Z,6.20
2022-11-23T20:33:53.950Z,6.20
2022-11-23T20:36:24.971Z,6.30
2022-11-23T20:38:52.622Z,6.30
2022-11-23T20:41:19.701Z,6.30
2022-11-23T20:43:48.673Z,6.20
2022-11-23T20:46:31.824Z,6.30
2022-11-23T20:49:02.666Z,6.30
2022-11-23T20:51:29.880Z,6.30
2022-11-23T20:53:56.775Z,6.30
2022-11-23T20:56:27.128Z,6.30
2022-11-23T20:58:55.914Z,6.40
2022-11-23T21:01:26.944Z,6.30
2022-11-23T21:03:55.241Z,6.30
2022-11-23T21:06:22.550Z,6.40
2022-11-23T21:08:50.032Z,6.40
2022-11-23T21:11:38.012Z,6.30
2022-11-23T21:14:06.277Z,6.30
2022-11-23T21:16:37.965Z,6.40
2022-11-23T21:19:05.716Z,6.40
2022-11-23T21:21:32.780Z,6.50
2022-11-23T21:23:59.941Z,6.40
2022-11-23T21:26:26.912Z,6.50
2022-11-23T21:28:53.754Z,6.50
2022-11-23T21:31:20.734Z,6.50
2022-11-23T21:33:53.791Z,6.50
2022-11-23T21:36:22.595Z,6.50
2022-11-23T21:38:57.404Z,6.50
2022-11-23T21:41:27.568Z,6.60
2022-11-23T21:43:57.357Z,6.60
2022-11-23T21:46:27.761Z,6.60
2022-11-23T21:48:56.011Z,6.70
2022-11-23T21:51:31.834Z,6.60
2022-11-23T21:54:00.006Z,6.60
2022-11-23T21:56:27.957Z,6.60
2022-11-23T21:58:55.631Z,6.60
2022-11-23T22:01:23.920Z,6.60
2022-11-23T22:03:53.765Z,6.70
2022-11-23T22:06:21.125Z,6.60
2022-11-23T22:08:49.302Z,6.70
2022-11-23T22:11:41.272Z,6.60
2022-11-23T22:14:12.706Z,6.70
2022-11-23T22:17:05.516Z,6.70
2022-11-23T22:19:32.500Z,6.70
2022-11-23T22:21:59.426Z,6.70
2022-11-23T22:24:26.314Z,6.70
2022-11-23T22:26:53.358Z,6.70
2022-11-23T22:29:20.413Z,6.70
2022-11-23T22:32:07.006Z,6.70
2022-11-23T22:34:35.373Z,6.80
2022-11-23T22:37:08.691Z,6.80
2022-11-23T22:39:37.331Z,6.80
2022-11-23T22:42:04.287Z,6.80
2022-11-23T22:44:31.274Z,6.80
2022-11-23T22:46:58.274Z,6.80
2022-11-23T22:49:25.321Z,6.80
2022-11-23T22:51:52.169Z,6.90
2022-11-23T22:54:19.044Z,6.80
2022-11-23T22:56:46.011Z,6.80
2022-11-23T22:59:13.023Z,6.80
2022-11-23T23:01:39.957Z,6.80
2022-11-23T23:04:08.108Z,6.90
2022-11-23T23:06:35.913Z,6.80
2022-11-23T23:09:04.126Z,6.80
2022-11-23T23:11:32.086Z,6.90
2022-11-23T23:13:59.913Z,6.90
2022-11-23T23:16:27.153Z,6.90
2022-11-23T23:18:55.607Z,6.90
2022-11-23T23:21:22.755Z,6.90
2022-11-23T23:23:50.876Z,7.00
2022-11-23T23:26:20.315Z,7.00
2022-11-23T23:28:47.259Z,6.90
2022-11-23T23:31:16.197Z,6.90
2022-11-23T23:33:43.712Z,6.90
2022-11-23T23:36:14.869Z,6.90
2022-11-23T23:38:42.401Z,7.00
2022-11-23T23:41:11.296Z,7.00
2022-11-23T23:43:42.213Z,7.00
2022-11-23T23:46:10.526Z,7.00
2022-11-23T23:48:38.483Z,6.90
2022-11-23T23:51:07.230Z,6.90
2022-11-23T23:53:34.552Z,6.90
2022-11-23T23:56:05.266Z,6.90
2022-11-23T23:58:34.779Z,6.90
